NCAR-RAP Real-Time Weather Data

Output produced by METARs form (17 October 2018  16:16 UTC)
found at http://weather.rap.ucar.edu/surface/
 
RJBD 171000Z 34007KT 9999 FEW030 SCT/// 18/11 Q1012
RJBD 170900Z 33008KT 9999 FEW030 BKN/// 19/11 Q1011
RJBD 170800Z 33008KT 9999 FEW030 BKN/// 20/11 Q1011
RJBD 170700Z 32008KT 9999 FEW030 BKN/// 21/10 Q1011
RJBD 170600Z 32009KT 9999 FEW030 BKN/// 22/10 Q1010
RJBD 170500Z 33011KT 9999 FEW030 BKN/// 22/12 Q1009
RJBD 170400Z 31010KT 280V340 9999 FEW030 BKN/// 22/13 Q1010
RJBD 170300Z 30007KT 260V350 9999 FEW030 BKN/// 21/11 Q1010
RJBD 170200Z 31007KT 280V350 9999 FEW030 SCT110 BKN/// 21/13 Q1011
RJBD 170100Z 30006KT 270V350 9999 FEW030 SCT110 20/14 Q1011
RJBD 170000Z 34003KT 290V010 CAVOK 19/13 Q1012
RJBD 162300Z 08004KT CAVOK 17/13 Q1011
RJBD 162240Z 03004KT 9999 FEW030 SCT060 BKN100 16/13 Q1011 RMK 1CU030 3SC060 5AC100 A2987
RJBD 161000Z 11004KT 9999 -RA FEW040 SCT090 BKN110 16/15 Q1011
RJBD 160900Z 00000KT 9999 -RA FEW040 SCT090 BKN110 17/15 Q1011
RJBD 160800Z 06003KT 020V090 9999 -RA FEW050 SCT080 BKN100 19/15 Q1010
RJBD 160700Z 35003KT 9999 VCSH NSC 19/14 Q1011
RJBD 160600Z 36004KT 330V040 9999 VCSH NSC 20/14 Q1011
RJBD 160500Z 35003KT CAVOK 19/14 Q1011
RJBD 160400Z 04003KT 350V100 9999 VCSH FEW040 SCT090 BKN120 20/13 Q1012
RJBD 160300Z 00000KT 9999 -RA NSC 20/13 Q1013
RJBD 160200Z VRB02KT CAVOK 21/11 Q1013
RJBD 160100Z 05005KT 9999 VCSH NSC 20/13 Q1014
RJBD 160000Z 04004KT 9999 FEW035 SCT100 BKN150 19/13 Q1014
RJBD 152300Z 14002KT 9999 FEW035 SCT140 BKN160 18/13 Q1014
RJBD 152240Z 13003KT 090V180 9999 FEW035 BKN140 BKN160 17/13 Q1015 RMK 1CU035 5AC140 6AC160 A2997
RJBD 151000Z 13002KT 9999 FEW030 18/16 Q1016
RJBD 150900Z 28002KT 9999 FEW030 SCT/// 19/15 Q1016
RJBD 150800Z 28003KT 9999 FEW020 SCT/// 20/16 Q1016
RJBD 150700Z 27003KT 210V330 9999 FEW015 BKN/// 21/16 Q1016
RJBD 150600Z 26003KT 170V310 9999 FEW015 SCT080 BKN/// 20/16 Q1016
RJBD 150500Z 26003KT 200V010 9999 FEW015 SCT060 BKN090 21/17 Q1016